Terminal Aerodrome Forecast
Issued by NWS Cleveland, OH

Home | Current Version | Previous Version | Text Only | Print | Product List | Glossary On
Versions: 1 2 3 4 5 6 7 8 9 10 11 12 13 14 15 16 17 18
000
FTUS41 KCLE 031509 AAA
TAFCAK
TAF AMD
KCAK 031509Z 0315/0412 12007KT P6SM BKN015
     FM031800 10007KT P6SM BKN020
     FM032100 11007KT P6SM BKN035
     FM041000 15005KT 3SM BR BKN250=

USA.gov is the U.S. government's official web portal to all federal, state and local government web resources and services.